Terminal Aerodrome Forecast
Issued by NWS Wilmington, NC

Home | Current Version | Previous Version | Text Only | Print | Product List | Glossary On
Versions: 1 2 3 4 5 6 7 8 9 10 11 12 13 14 15 16
000
FTUS42 KILM 301456 AAC
TAFFLO
TAF AMD
KFLO 301456Z 3015/3112 09010KT P6SM VCSH SCT030
      TEMPO 3015/3018 3SM SHRA BKN026
     FM301800 13009KT P6SM VCSH BKN035
      TEMPO 3018/3021 4SM SHRA BKN030
     FM310200 02005KT P6SM VCSH SCT015 OVC025
     FM310600 VRB03KT 6SM BR BKN008=

USA.gov is the U.S. government's official web portal to all federal, state and local government web resources and services.